EST,Max TemperatureF,Mean TemperatureF,Min TemperatureF,Max Dew PointF,MeanDew PointF,Min DewpointF,Max Humidity, Mean Humidity, Min Humidity, Max Sea Level PressureIn, Mean Sea Level PressureIn, Min Sea Level PressureIn, Max VisibilityMiles, Mean VisibilityMiles, Min VisibilityMiles, Max Wind SpeedMPH, Mean Wind SpeedMPH, Max Gust SpeedMPH,PrecipitationIn, CloudCover, Events, WindDirDegrees
2013-11-1,75,72,68,66,65,63,94,80,69,29.92,29.76,29.68,10,9,2,16,10,25,0.14,5,,207
2013-11-2,75,66,57,66,56,43,94,74,41,29.91,29.73,29.65,10,10,7,15,5,22,0.01,3,,301
2013-11-3,64,53,41,43,40,34,87,66,36,30.39,30.15,29.91,10,10,10,16,6,25,0.00,1,,344
2013-11-4,55,46,37,39,36,32,93,73,47,30.60,30.54,30.40,10,10,10,9,3,17,0.00,1,,25
2013-11-5,66,54,42,52,46,37,100,80,56,30.58,30.53,30.46,10,10,10,8,3,,0.00,4,,43
2013-11-6,69,58,46,57,53,46,100,82,56,30.47,30.31,30.13,10,10,4,10,2,,0.00,4,,142
2013-11-7,69,58,46,64,56,39,100,85,62,30.13,29.99,29.87,10,9,2,10,3,20,0.15,6,,315
2013-11-8,60,48,35,37,33,28,93,65,31,30.34,30.22,30.08,10,10,10,17,5,23,0.00,0,,319
2013-11-9,60,46,32,41,33,30,100,64,34,30.39,30.29,30.12,10,10,7,10,2,16,0.00,0,,208
2013-11-10,71,58,46,39,35,28,66,47,27,30.26,30.10,30.00,10,10,10,18,9,25,0.00,0,,288
2013-11-11,59,47,35,39,33,28,81,58,38,30.36,30.25,30.13,10,10,10,9,4,,0.00,0,,240
2013-11-12,57,47,35,39,29,18,71,55,42,30.40,30.19,30.01,10,10,10,20,7,31,0.00,3,,331
2013-11-13,48,38,28,27,21,16,93,56,32,30.50,30.45,30.40,10,10,10,18,8,26,0.00,0,,337
2013-11-14,60,44,28,28,25,21,93,52,23,30.45,30.37,30.32,10,10,10,10,4,17,0.00,0,,226
2013-11-15,60,50,39,46,34,25,77,54,33,30.35,30.29,30.24,10,10,10,8,4,16,0.00,2,,217
2013-11-16,60,56,51,55,53,46,100,89,72,30.32,30.27,30.23,10,8,1,7,2,,0.23,8,,140
2013-11-17,71,61,51,64,57,52,100,87,64,30.24,30.10,29.87,10,9,2,9,2,16,0.00,2,,154
2013-11-18,75,62,48,66,51,34,100,65,27,29.92,29.83,29.78,10,9,1,17,8,25,0.12,4,,266
2013-11-19,57,49,41,36,30,28,66,52,36,30.34,30.15,29.92,10,10,10,14,7,26,0.00,0,,353
2013-11-20,55,45,35,39,35,30,81,69,51,30.52,30.46,30.35,10,10,10,8,3,,0.00,1,,41
2013-11-21,62,52,42,52,45,39,100,81,63,30.52,30.47,30.40,10,10,7,7,3,,0.00,4,,57
2013-11-22,73,60,48,61,54,46,100,83,57,30.41,30.21,30.04,10,8,0,10,3,20,0.00,2,,230
2013-11-23,62,52,42,61,38,21,94,58,23,30.14,30.08,30.02,10,10,10,12,6,20,0.00,2,,341
2013-11-24,42,34,26,23,9,3,56,39,24,30.56,30.40,30.15,10,10,10,20,12,31,0.00,0,,339
2013-11-25,41,31,21,19,12,9,63,45,28,30.62,30.53,30.41,10,10,10,9,5,,0.00,0,,201
2013-11-26,64,50,35,63,39,18,100,78,45,30.42,30.11,29.59,10,7,2,20,4,28,0.91,8,,131
2013-11-27,68,52,37,66,43,28,100,91,70,30.08,29.66,29.49,10,7,1,18,11,30,0.98,7,,323
2013-11-28,42,34,26,27,22,16,93,63,36,30.52,30.38,30.09,10,10,10,15,7,26,0.00,0,,293
2013-11-29,50,38,26,30,26,23,100,72,37,30.70,30.59,30.49,10,10,10,10,3,16,0.00,0,,10
2013-11-30,51,40,28,37,31,27,93,77,50,30.68,30.58,30.39,10,10,10,7,2,,0.00,1,,27